This is the latest recevied weather packets stored in our database for station/object DC4XK-10. If no packets are shown the sender has not sent any weather packets the latest 1 day(s).
| Time | Temp. | Humidity | Pressure | Rain* | Wind** | Luminosity | Snow |
|---|---|---|---|---|---|---|---|
| 1778005131 | 13.89° C | 63% | 1008.6 hPa | 0 mm | 0 m/s | - | - |
| 1778004530 | 14.44° C | 62% | 1008.6 hPa | 0 mm | 0 m/s | - | - |
| 1778003931 | 15° C | 61% | 1008.6 hPa | 0 mm | 0 m/s | - | - |
| 1778003331 | 14.44° C | 61% | 1008.9 hPa | 0 mm | 0 m/s | - | - |
| 1778002731 | 15° C | 60% | 1008.7 hPa | 0 mm | 0 m/s | - | - |
| 1778002131 | 15.56° C | 56% | 1008.8 hPa | 0 mm | 0.45 m/s, 309° | - | - |
| 1778001531 | 16.11° C | 55% | 1008.6 hPa | 0 mm | 0 m/s | - | - |
| 1778000931 | 15.56° C | 54% | 1008.5 hPa | 0 mm | 1.34 m/s, 331° | - | - |
| 1778000331 | 16.11° C | 50% | 1008.6 hPa | 0 mm | 0.45 m/s, 309° | - | - |
| 1777999731 | 16.11° C | 50% | 1008.6 hPa | 0 mm | 0 m/s | - | - |
| 1777999132 | 16.11° C | 51% | 1008.7 hPa | 0 mm | 0.89 m/s, 300° | - | - |
| 1777998531 | 16.11° C | 50% | 1008.7 hPa | 0 mm | 0.89 m/s, 290° | - | - |
| 1777997930 | 16.67° C | 49% | 1008.7 hPa | 0 mm | 0.45 m/s, 4° | - | - |
| 1777997333 | 16.11° C | 53% | 1009 hPa | 0 mm | 0.89 m/s, 340° | - | - |
| 1777996730 | 16.11° C | 52% | 1009 hPa | 0 mm | 1.79 m/s, 334° | - | - |
| 1777996131 | 16.67° C | 52% | 1009 hPa | 0 mm | 1.79 m/s, 294° | - | - |
| 1777995534 | 17.22° C | 53% | 1008.9 hPa | 0 mm | 0 m/s | - | - |
| 1777994931 | 16.67° C | 52% | 1008.9 hPa | 0 mm | 1.79 m/s, 44° | - | - |
| 1777994331 | 16.11° C | 52% | 1009 hPa | 0 mm | 1.34 m/s, 334° | - | - |
| 1777993732 | 15.56° C | 56% | 1009 hPa | 0 mm | 0 m/s | - | - |
| 1777993130 | 17.22° C | 52% | 1009.2 hPa | 0 mm | 0 m/s | - | - |
| 1777992531 | 16.67° C | 53% | 1009 hPa | 0 mm | 0.45 m/s, 48° | - | - |
| 1777991930 | 16.67° C | 53% | 1009.2 hPa | 0 mm | 1.34 m/s, 77° | - | - |
| 1777991331 | 15.56° C | 55% | 1009.5 hPa | 0 mm | 3.13 m/s, 273° | - | - |
| 1777990731 | 16.67° C | 55% | 1009.4 hPa | 0 mm | 0 m/s | - | - |
* Rain latest hour (hover to see other rain measurements)
** Current wind speed in m/s (hover to see current wind gust speed)